sensor_id;sensor_type;location;lat;lon;timestamp;temperature;humidity
21481;DHT22;10902;48.158;8.634;2023-07-31T00:00:34;11.60;99.90
21481;DHT22;10902;48.158;8.634;2023-07-31T00:03:20;11.60;99.90
21481;DHT22;10902;48.158;8.634;2023-07-31T00:06:05;11.60;99.90
21481;DHT22;10902;48.158;8.634;2023-07-31T00:08:51;11.50;99.90
21481;DHT22;10902;48.158;8.634;2023-07-31T00:11:37;11.40;99.90
21481;DHT22;10902;48.158;8.634;2023-07-31T00:14:22;11.40;99.90
21481;DHT22;10902;48.158;8.634;2023-07-31T00:17:08;11.30;99.90
21481;DHT22;10902;48.158;8.634;2023-07-31T00:19:53;11.30;99.90
21481;DHT22;10902;48.158;8.634;2023-07-31T00:22:39;11.30;99.90
21481;DHT22;10902;48.158;8.634;2023-07-31T00:25:25;11.30;99.90
21481;DHT22;10902;48.158;8.634;2023-07-31T00:28:10;11.30;99.90
21481;DHT22;10902;48.158;8.634;2023-07-31T00:30:56;11.20;99.90
21481;DHT22;10902;48.158;8.634;2023-07-31T00:33:44;11.20;99.90
21481;DHT22;10902;48.158;8.634;2023-07-31T00:36:31;11.20;99.90
21481;DHT22;10902;48.158;8.634;2023-07-31T00:39:16;11.30;99.90
21481;DHT22;10902;48.158;8.634;2023-07-31T00:42:02;11.20;99.90
21481;DHT22;10902;48.158;8.634;2023-07-31T00:44:48;11.20;99.90
21481;DHT22;10902;48.158;8.634;2023-07-31T00:47:33;11.20;99.90
21481;DHT22;10902;48.158;8.634;2023-07-31T00:50:19;11.10;99.90
21481;DHT22;10902;48.158;8.634;2023-07-31T00:53:05;11.20;99.90
21481;DHT22;10902;48.158;8.634;2023-07-31T00:55:52;11.10;99.90
21481;DHT22;10902;48.158;8.634;2023-07-31T00:58:38;11.10;99.90
21481;DHT22;10902;48.158;8.634;2023-07-31T01:01:24;11.00;99.90
21481;DHT22;10902;48.158;8.634;2023-07-31T01:04:09;10.80;99.90
21481;DHT22;10902;48.158;8.634;2023-07-31T01:07:36;10.70;99.90
21481;DHT22;10902;48.158;8.634;2023-07-31T01:10:29;10.50;99.90
21481;DHT22;10902;48.158;8.634;2023-07-31T01:13:17;10.60;99.90
21481;DHT22;10902;48.158;8.634;2023-07-31T01:16:03;10.70;99.90
21481;DHT22;10902;48.158;8.634;2023-07-31T01:18:49;10.60;99.90
21481;DHT22;10902;48.158;8.634;2023-07-31T01:25:27;10.60;99.90
21481;DHT22;10902;48.158;8.634;2023-07-31T01:28:25;10.80;99.90
21481;DHT22;10902;48.158;8.634;2023-07-31T01:31:17;10.80;99.90
21481;DHT22;10902;48.158;8.634;2023-07-31T01:34:04;10.80;99.90
21481;DHT22;10902;48.158;8.634;2023-07-31T01:36:49;10.80;99.90
21481;DHT22;10902;48.158;8.634;2023-07-31T01:39:35;10.80;99.90
21481;DHT22;10902;48.158;8.634;2023-07-31T01:42:21;10.80;99.90
21481;DHT22;10902;48.158;8.634;2023-07-31T01:45:07;10.70;99.90
21481;DHT22;10902;48.158;8.634;2023-07-31T01:47:52;10.50;99.90
21481;DHT22;10902;48.158;8.634;2023-07-31T01:50:38;10.60;99.90
21481;DHT22;10902;48.158;8.634;2023-07-31T01:53:23;10.70;99.90
21481;DHT22;10902;48.158;8.634;2023-07-31T01:56:09;10.70;99.90
21481;DHT22;10902;48.158;8.634;2023-07-31T01:58:54;10.50;99.90
21481;DHT22;10902;48.158;8.634;2023-07-31T02:01:40;10.40;99.90
21481;DHT22;10902;48.158;8.634;2023-07-31T02:04:26;10.40;99.90
21481;DHT22;10902;48.158;8.634;2023-07-31T02:07:11;10.50;99.90
21481;DHT22;10902;48.158;8.634;2023-07-31T02:09:57;10.50;99.90
21481;DHT22;10902;48.158;8.634;2023-07-31T02:12:42;10.40;99.90
21481;DHT22;10902;48.158;8.634;2023-07-31T02:15:28;10.40;99.90
21481;DHT22;10902;48.158;8.634;2023-07-31T02:18:13;10.40;99.90
21481;DHT22;10902;48.158;8.634;2023-07-31T02:20:59;10.50;99.90
21481;DHT22;10902;48.158;8.634;2023-07-31T02:23:44;10.40;99.90
21481;DHT22;10902;48.158;8.634;2023-07-31T02:26:30;10.30;99.90
21481;DHT22;10902;48.158;8.634;2023-07-31T02:29:15;10.30;99.90
21481;DHT22;10902;48.158;8.634;2023-07-31T02:32:01;10.10;99.90
21481;DHT22;10902;48.158;8.634;2023-07-31T02:34:47;10.00;99.90
21481;DHT22;10902;48.158;8.634;2023-07-31T02:37:33;9.90;99.90
21481;DHT22;10902;48.158;8.634;2023-07-31T02:40:19;9.80;99.90
21481;DHT22;10902;48.158;8.634;2023-07-31T02:43:05;9.80;99.90
21481;DHT22;10902;48.158;8.634;2023-07-31T02:45:53;9.90;99.90
21481;DHT22;10902;48.158;8.634;2023-07-31T02:48:39;9.90;99.90
21481;DHT22;10902;48.158;8.634;2023-07-31T02:51:25;9.90;99.90
21481;DHT22;10902;48.158;8.634;2023-07-31T02:54:10;10.00;99.90
21481;DHT22;10902;48.158;8.634;2023-07-31T02:56:56;10.10;99.90
21481;DHT22;10902;48.158;8.634;2023-07-31T02:59:41;10.00;99.90
21481;DHT22;10902;48.158;8.634;2023-07-31T03:02:27;10.00;99.90
21481;DHT22;10902;48.158;8.634;2023-07-31T03:05:12;10.00;99.90
21481;DHT22;10902;48.158;8.634;2023-07-31T03:07:58;10.00;99.90
21481;DHT22;10902;48.158;8.634;2023-07-31T03:10:43;10.00;99.90
21481;DHT22;10902;48.158;8.634;2023-07-31T03:13:29;10.00;99.90
21481;DHT22;10902;48.158;8.634;2023-07-31T03:16:15;10.00;99.90
21481;DHT22;10902;48.158;8.634;2023-07-31T03:19:00;9.90;99.90
21481;DHT22;10902;48.158;8.634;2023-07-31T03:21:46;9.90;99.90
21481;DHT22;10902;48.158;8.634;2023-07-31T03:24:32;9.90;99.90
21481;DHT22;10902;48.158;8.634;2023-07-31T03:27:18;9.90;99.90
21481;DHT22;10902;48.158;8.634;2023-07-31T03:30:04;9.90;99.90
21481;DHT22;10902;48.158;8.634;2023-07-31T03:32:50;9.80;99.90
21481;DHT22;10902;48.158;8.634;2023-07-31T03:35:35;9.80;99.90
21481;DHT22;10902;48.158;8.634;2023-07-31T03:38:21;9.80;99.90
21481;DHT22;10902;48.158;8.634;2023-07-31T03:41:06;9.90;99.90
21481;DHT22;10902;48.158;8.634;2023-07-31T03:43:52;9.90;99.90
21481;DHT22;10902;48.158;8.634;2023-07-31T03:46:38;9.80;99.90
21481;DHT22;10902;48.158;8.634;2023-07-31T03:49:23;9.70;99.90
21481;DHT22;10902;48.158;8.634;2023-07-31T03:52:15;9.60;99.90
21481;DHT22;10902;48.158;8.634;2023-07-31T03:55:01;9.60;99.90
21481;DHT22;10902;48.158;8.634;2023-07-31T03:57:46;9.50;99.90
21481;DHT22;10902;48.158;8.634;2023-07-31T04:00:32;9.50;99.90
21481;DHT22;10902;48.158;8.634;2023-07-31T04:03:17;9.40;99.90
21481;DHT22;10902;48.158;8.634;2023-07-31T04:06:03;9.40;99.90
21481;DHT22;10902;48.158;8.634;2023-07-31T04:08:48;9.40;99.90
21481;DHT22;10902;48.158;8.634;2023-07-31T04:11:34;9.40;99.90
21481;DHT22;10902;48.158;8.634;2023-07-31T04:14:20;9.50;99.90
21481;DHT22;10902;48.158;8.634;2023-07-31T04:17:05;9.50;99.90
21481;DHT22;10902;48.158;8.634;2023-07-31T04:19:51;9.60;99.90
21481;DHT22;10902;48.158;8.634;2023-07-31T04:22:37;9.70;99.90
21481;DHT22;10902;48.158;8.634;2023-07-31T04:25:22;10.10;99.90
21481;DHT22;10902;48.158;8.634;2023-07-31T04:28:08;10.20;99.90
21481;DHT22;10902;48.158;8.634;2023-07-31T04:30:53;10.20;99.90
21481;DHT22;10902;48.158;8.634;2023-07-31T04:33:39;10.20;99.90
21481;DHT22;10902;48.158;8.634;2023-07-31T04:36:24;10.30;99.90
21481;DHT22;10902;48.158;8.634;2023-07-31T04:39:10;10.40;99.90
21481;DHT22;10902;48.158;8.634;2023-07-31T04:41:56;10.40;99.90
21481;DHT22;10902;48.158;8.634;2023-07-31T04:44:41;10.40;99.90
21481;DHT22;10902;48.158;8.634;2023-07-31T04:47:27;10.50;99.90
21481;DHT22;10902;48.158;8.634;2023-07-31T04:50:12;10.50;99.90
21481;DHT22;10902;48.158;8.634;2023-07-31T04:52:58;10.50;99.90
21481;DHT22;10902;48.158;8.634;2023-07-31T04:55:43;10.50;99.90
21481;DHT22;10902;48.158;8.634;2023-07-31T04:58:29;10.50;99.90
21481;DHT22;10902;48.158;8.634;2023-07-31T05:01:15;10.60;99.90
21481;DHT22;10902;48.158;8.634;2023-07-31T05:04:00;10.60;99.90
21481;DHT22;10902;48.158;8.634;2023-07-31T05:06:46;10.60;99.90
21481;DHT22;10902;48.158;8.634;2023-07-31T05:09:32;10.70;99.90
21481;DHT22;10902;48.158;8.634;2023-07-31T05:12:17;10.70;99.90
21481;DHT22;10902;48.158;8.634;2023-07-31T05:15:03;10.80;99.90
21481;DHT22;10902;48.158;8.634;2023-07-31T05:17:49;11.00;99.90
21481;DHT22;10902;48.158;8.634;2023-07-31T05:20:35;11.10;99.90
21481;DHT22;10902;48.158;8.634;2023-07-31T05:23:20;11.10;99.90
21481;DHT22;10902;48.158;8.634;2023-07-31T05:26:07;11.10;99.90
21481;DHT22;10902;48.158;8.634;2023-07-31T05:28:52;11.20;99.90
21481;DHT22;10902;48.158;8.634;2023-07-31T05:31:38;11.20;99.90
21481;DHT22;10902;48.158;8.634;2023-07-31T05:34:24;11.20;99.90
21481;DHT22;10902;48.158;8.634;2023-07-31T05:37:10;11.30;99.90
21481;DHT22;10902;48.158;8.634;2023-07-31T05:39:56;11.30;99.90
21481;DHT22;10902;48.158;8.634;2023-07-31T05:42:42;11.40;99.90
21481;DHT22;10902;48.158;8.634;2023-07-31T05:45:27;11.50;99.90
21481;DHT22;10902;48.158;8.634;2023-07-31T05:48:13;11.70;99.90
21481;DHT22;10902;48.158;8.634;2023-07-31T05:50:59;11.80;99.90
21481;DHT22;10902;48.158;8.634;2023-07-31T05:53:44;12.00;99.90
21481;DHT22;10902;48.158;8.634;2023-07-31T05:56:30;12.00;99.90
21481;DHT22;10902;48.158;8.634;2023-07-31T05:59:16;12.00;99.90
21481;DHT22;10902;48.158;8.634;2023-07-31T06:02:02;12.10;99.90
21481;DHT22;10902;48.158;8.634;2023-07-31T06:04:48;12.20;99.90
21481;DHT22;10902;48.158;8.634;2023-07-31T06:07:34;12.30;99.90
21481;DHT22;10902;48.158;8.634;2023-07-31T06:10:19;12.40;99.90
21481;DHT22;10902;48.158;8.634;2023-07-31T06:13:05;12.40;99.90
21481;DHT22;10902;48.158;8.634;2023-07-31T06:15:50;12.50;99.90
21481;DHT22;10902;48.158;8.634;2023-07-31T06:18:36;12.70;99.90
21481;DHT22;10902;48.158;8.634;2023-07-31T06:21:21;12.80;99.90
21481;DHT22;10902;48.158;8.634;2023-07-31T06:24:07;12.90;99.90
21481;DHT22;10902;48.158;8.634;2023-07-31T06:26:53;13.10;99.90
21481;DHT22;10902;48.158;8.634;2023-07-31T06:29:39;13.10;99.90
21481;DHT22;10902;48.158;8.634;2023-07-31T06:32:25;13.30;99.90
21481;DHT22;10902;48.158;8.634;2023-07-31T06:35:10;13.50;99.90
21481;DHT22;10902;48.158;8.634;2023-07-31T06:37:56;13.50;99.90
21481;DHT22;10902;48.158;8.634;2023-07-31T06:40:41;13.50;99.90
21481;DHT22;10902;48.158;8.634;2023-07-31T06:43:27;13.60;99.90
21481;DHT22;10902;48.158;8.634;2023-07-31T06:46:12;13.70;99.90
21481;DHT22;10902;48.158;8.634;2023-07-31T06:48:58;13.80;99.90
21481;DHT22;10902;48.158;8.634;2023-07-31T06:51:44;14.10;99.90
21481;DHT22;10902;48.158;8.634;2023-07-31T06:54:30;14.20;99.90
21481;DHT22;10902;48.158;8.634;2023-07-31T06:57:16;14.40;99.90
21481;DHT22;10902;48.158;8.634;2023-07-31T07:00:01;14.60;99.90
21481;DHT22;10902;48.158;8.634;2023-07-31T07:02:49;14.90;99.90
21481;DHT22;10902;48.158;8.634;2023-07-31T07:05:35;15.20;99.90
21481;DHT22;10902;48.158;8.634;2023-07-31T07:08:20;15.30;99.90
21481;DHT22;10902;48.158;8.634;2023-07-31T07:11:06;15.20;99.90
21481;DHT22;10902;48.158;8.634;2023-07-31T07:13:52;15.20;99.90
21481;DHT22;10902;48.158;8.634;2023-07-31T07:16:38;15.30;99.90
21481;DHT22;10902;48.158;8.634;2023-07-31T07:19:26;15.30;99.90
21481;DHT22;10902;48.158;8.634;2023-07-31T07:22:11;15.50;99.90
21481;DHT22;10902;48.158;8.634;2023-07-31T07:24:57;15.70;99.90
21481;DHT22;10902;48.158;8.634;2023-07-31T07:27:42;15.80;99.90
21481;DHT22;10902;48.158;8.634;2023-07-31T07:30:28;16.00;99.90
21481;DHT22;10902;48.158;8.634;2023-07-31T07:33:14;16.10;99.90
21481;DHT22;10902;48.158;8.634;2023-07-31T07:36:00;16.10;99.90
21481;DHT22;10902;48.158;8.634;2023-07-31T07:38:48;16.30;99.90
21481;DHT22;10902;48.158;8.634;2023-07-31T07:41:33;16.40;99.90
21481;DHT22;10902;48.158;8.634;2023-07-31T07:44:19;16.20;99.90
21481;DHT22;10902;48.158;8.634;2023-07-31T07:47:05;16.50;99.90
21481;DHT22;10902;48.158;8.634;2023-07-31T07:49:53;16.60;99.90
21481;DHT22;10902;48.158;8.634;2023-07-31T07:52:39;16.80;99.90
21481;DHT22;10902;48.158;8.634;2023-07-31T07:55:24;16.40;99.90
21481;DHT22;10902;48.158;8.634;2023-07-31T07:58:10;16.10;99.90
21481;DHT22;10902;48.158;8.634;2023-07-31T08:00:55;16.00;99.90
21481;DHT22;10902;48.158;8.634;2023-07-31T08:03:41;16.10;99.90
21481;DHT22;10902;48.158;8.634;2023-07-31T08:06:26;16.50;99.90
21481;DHT22;10902;48.158;8.634;2023-07-31T08:09:12;16.90;99.90
21481;DHT22;10902;48.158;8.634;2023-07-31T08:11:58;16.90;99.90
21481;DHT22;10902;48.158;8.634;2023-07-31T08:14:47;17.30;99.90
21481;DHT22;10902;48.158;8.634;2023-07-31T08:17:33;17.40;99.90
21481;DHT22;10902;48.158;8.634;2023-07-31T08:20:18;17.40;99.90
21481;DHT22;10902;48.158;8.634;2023-07-31T08:23:04;17.30;99.90
21481;DHT22;10902;48.158;8.634;2023-07-31T08:25:50;17.10;99.90
21481;DHT22;10902;48.158;8.634;2023-07-31T08:28:36;17.40;99.90
21481;DHT22;10902;48.158;8.634;2023-07-31T08:31:22;17.80;99.90
21481;DHT22;10902;48.158;8.634;2023-07-31T08:34:07;17.80;99.90
21481;DHT22;10902;48.158;8.634;2023-07-31T08:36:53;17.40;99.90
21481;DHT22;10902;48.158;8.634;2023-07-31T08:39:38;17.40;99.90
21481;DHT22;10902;48.158;8.634;2023-07-31T08:42:27;17.70;99.90
21481;DHT22;10902;48.158;8.634;2023-07-31T08:45:17;18.10;99.90
21481;DHT22;10902;48.158;8.634;2023-07-31T08:48:03;18.10;99.90
21481;DHT22;10902;48.158;8.634;2023-07-31T08:50:49;18.50;99.90
21481;DHT22;10902;48.158;8.634;2023-07-31T08:53:35;18.00;99.90
21481;DHT22;10902;48.158;8.634;2023-07-31T08:56:21;18.20;99.90
21481;DHT22;10902;48.158;8.634;2023-07-31T08:59:07;18.40;99.90
21481;DHT22;10902;48.158;8.634;2023-07-31T09:01:55;18.60;99.90
21481;DHT22;10902;48.158;8.634;2023-07-31T09:04:42;18.90;99.90
21481;DHT22;10902;48.158;8.634;2023-07-31T09:07:29;19.30;99.90
21481;DHT22;10902;48.158;8.634;2023-07-31T09:10:16;19.30;99.90
21481;DHT22;10902;48.158;8.634;2023-07-31T09:13:02;19.50;99.90
21481;DHT22;10902;48.158;8.634;2023-07-31T09:15:48;19.20;99.90
21481;DHT22;10902;48.158;8.634;2023-07-31T09:18:53;19.20;99.90
21481;DHT22;10902;48.158;8.634;2023-07-31T09:21:48;19.20;99.90
21481;DHT22;10902;48.158;8.634;2023-07-31T09:24:34;19.80;99.90
21481;DHT22;10902;48.158;8.634;2023-07-31T09:27:20;19.90;99.90
21481;DHT22;10902;48.158;8.634;2023-07-31T09:30:06;19.70;99.90
21481;DHT22;10902;48.158;8.634;2023-07-31T09:33:01;19.90;99.90
21481;DHT22;10902;48.158;8.634;2023-07-31T09:35:47;20.80;99.90
21481;DHT22;10902;48.158;8.634;2023-07-31T09:38:36;21.50;99.90
21481;DHT22;10902;48.158;8.634;2023-07-31T09:41:21;21.50;99.90
21481;DHT22;10902;48.158;8.634;2023-07-31T09:44:07;21.60;99.90
21481;DHT22;10902;48.158;8.634;2023-07-31T09:46:53;21.10;99.90
21481;DHT22;10902;48.158;8.634;2023-07-31T09:49:39;20.40;99.90
21481;DHT22;10902;48.158;8.634;2023-07-31T09:52:26;20.30;99.90
21481;DHT22;10902;48.158;8.634;2023-07-31T09:55:12;19.90;99.90
21481;DHT22;10902;48.158;8.634;2023-07-31T09:57:58;19.90;99.90
21481;DHT22;10902;48.158;8.634;2023-07-31T10:00:44;19.80;99.90
21481;DHT22;10902;48.158;8.634;2023-07-31T10:03:31;20.20;99.90
21481;DHT22;10902;48.158;8.634;2023-07-31T10:06:18;20.60;99.90
21481;DHT22;10902;48.158;8.634;2023-07-31T10:09:06;20.50;99.90
21481;DHT22;10902;48.158;8.634;2023-07-31T10:11:58;21.00;99.90
21481;DHT22;10902;48.158;8.634;2023-07-31T10:14:45;21.50;99.90
21481;DHT22;10902;48.158;8.634;2023-07-31T10:17:30;21.90;99.90
21481;DHT22;10902;48.158;8.634;2023-07-31T10:20:20;22.10;99.90
21481;DHT22;10902;48.158;8.634;2023-07-31T10:23:06;22.80;99.90
21481;DHT22;10902;48.158;8.634;2023-07-31T10:25:53;22.30;99.90
21481;DHT22;10902;48.158;8.634;2023-07-31T10:28:40;22.50;99.90
21481;DHT22;10902;48.158;8.634;2023-07-31T10:31:27;21.60;99.90
21481;DHT22;10902;48.158;8.634;2023-07-31T10:34:14;21.80;99.90
21481;DHT22;10902;48.158;8.634;2023-07-31T10:37:29;22.70;99.90
21481;DHT22;10902;48.158;8.634;2023-07-31T10:40:23;22.70;99.90
21481;DHT22;10902;48.158;8.634;2023-07-31T10:43:09;22.90;99.90
21481;DHT22;10902;48.158;8.634;2023-07-31T10:45:56;22.60;99.90
21481;DHT22;10902;48.158;8.634;2023-07-31T10:48:42;23.00;99.90
21481;DHT22;10902;48.158;8.634;2023-07-31T10:51:34;23.50;99.90
21481;DHT22;10902;48.158;8.634;2023-07-31T10:54:20;23.70;99.90
21481;DHT22;10902;48.158;8.634;2023-07-31T10:57:22;23.30;99.90
21481;DHT22;10902;48.158;8.634;2023-07-31T11:00:29;23.00;99.90
21481;DHT22;10902;48.158;8.634;2023-07-31T11:03:17;23.50;99.90
21481;DHT22;10902;48.158;8.634;2023-07-31T11:06:03;22.70;99.90
21481;DHT22;10902;48.158;8.634;2023-07-31T11:08:50;23.90;99.90
21481;DHT22;10902;48.158;8.634;2023-07-31T11:11:36;23.90;99.90
21481;DHT22;10902;48.158;8.634;2023-07-31T11:14:22;23.40;99.90
21481;DHT22;10902;48.158;8.634;2023-07-31T11:17:07;23.60;99.90
21481;DHT22;10902;48.158;8.634;2023-07-31T11:19:53;24.40;99.90
21481;DHT22;10902;48.158;8.634;2023-07-31T11:22:39;25.10;99.90
21481;DHT22;10902;48.158;8.634;2023-07-31T11:25:25;25.50;99.90
21481;DHT22;10902;48.158;8.634;2023-07-31T11:28:15;25.80;99.90
21481;DHT22;10902;48.158;8.634;2023-07-31T11:31:01;26.40;99.90
21481;DHT22;10902;48.158;8.634;2023-07-31T11:33:47;25.50;99.90
21481;DHT22;10902;48.158;8.634;2023-07-31T11:36:33;24.90;99.90
21481;DHT22;10902;48.158;8.634;2023-07-31T11:39:19;24.00;99.90
21481;DHT22;10902;48.158;8.634;2023-07-31T11:42:05;23.70;99.90
21481;DHT22;10902;48.158;8.634;2023-07-31T11:44:50;23.90;99.90
21481;DHT22;10902;48.158;8.634;2023-07-31T11:47:37;23.50;99.90
21481;DHT22;10902;48.158;8.634;2023-07-31T11:50:24;23.00;99.90
21481;DHT22;10902;48.158;8.634;2023-07-31T11:53:13;23.20;99.90
21481;DHT22;10902;48.158;8.634;2023-07-31T11:56:03;23.60;99.90
21481;DHT22;10902;48.158;8.634;2023-07-31T11:58:53;24.10;99.90
21481;DHT22;10902;48.158;8.634;2023-07-31T12:01:39;24.90;99.90
21481;DHT22;10902;48.158;8.634;2023-07-31T12:04:24;25.50;99.90
21481;DHT22;10902;48.158;8.634;2023-07-31T12:07:11;25.30;99.90
21481;DHT22;10902;48.158;8.634;2023-07-31T12:09:58;25.20;99.90
21481;DHT22;10902;48.158;8.634;2023-07-31T12:12:43;24.80;99.90
21481;DHT22;10902;48.158;8.634;2023-07-31T12:18:19;24.00;99.90
21481;DHT22;10902;48.158;8.634;2023-07-31T12:21:07;23.80;99.90
21481;DHT22;10902;48.158;8.634;2023-07-31T12:23:53;24.10;99.90
21481;DHT22;10902;48.158;8.634;2023-07-31T12:26:39;24.80;99.90
21481;DHT22;10902;48.158;8.634;2023-07-31T12:29:38;25.50;99.90
21481;DHT22;10902;48.158;8.634;2023-07-31T12:32:24;23.70;99.90
21481;DHT22;10902;48.158;8.634;2023-07-31T12:35:15;24.20;99.90
21481;DHT22;10902;48.158;8.634;2023-07-31T12:38:03;23.50;99.90
21481;DHT22;10902;48.158;8.634;2023-07-31T12:40:49;24.10;99.90
21481;DHT22;10902;48.158;8.634;2023-07-31T12:43:36;23.70;99.90
21481;DHT22;10902;48.158;8.634;2023-07-31T12:46:21;23.80;99.90
21481;DHT22;10902;48.158;8.634;2023-07-31T12:49:07;23.90;99.90
21481;DHT22;10902;48.158;8.634;2023-07-31T12:51:52;23.60;99.90
21481;DHT22;10902;48.158;8.634;2023-07-31T12:54:39;23.90;99.90
21481;DHT22;10902;48.158;8.634;2023-07-31T12:57:24;23.70;99.90
21481;DHT22;10902;48.158;8.634;2023-07-31T13:00:11;23.30;99.90
21481;DHT22;10902;48.158;8.634;2023-07-31T13:02:58;23.10;99.90
21481;DHT22;10902;48.158;8.634;2023-07-31T13:05:44;22.70;99.90
21481;DHT22;10902;48.158;8.634;2023-07-31T13:08:30;22.80;99.90
21481;DHT22;10902;48.158;8.634;2023-07-31T13:11:15;22.90;99.90
21481;DHT22;10902;48.158;8.634;2023-07-31T13:14:01;23.40;99.90
21481;DHT22;10902;48.158;8.634;2023-07-31T13:16:46;24.20;99.90
21481;DHT22;10902;48.158;8.634;2023-07-31T13:19:32;25.10;99.90
21481;DHT22;10902;48.158;8.634;2023-07-31T13:22:18;25.10;99.90
21481;DHT22;10902;48.158;8.634;2023-07-31T13:25:04;25.40;99.90
21481;DHT22;10902;48.158;8.634;2023-07-31T13:27:50;24.80;99.90
21481;DHT22;10902;48.158;8.634;2023-07-31T13:30:36;24.50;99.90
21481;DHT22;10902;48.158;8.634;2023-07-31T13:33:21;24.70;99.90
21481;DHT22;10902;48.158;8.634;2023-07-31T13:36:07;25.40;99.90
21481;DHT22;10902;48.158;8.634;2023-07-31T13:38:53;25.90;99.90
21481;DHT22;10902;48.158;8.634;2023-07-31T13:41:38;26.60;99.90
21481;DHT22;10902;48.158;8.634;2023-07-31T13:44:24;26.60;99.90
21481;DHT22;10902;48.158;8.634;2023-07-31T13:47:10;25.20;99.90
21481;DHT22;10902;48.158;8.634;2023-07-31T13:49:55;24.40;99.90
21481;DHT22;10902;48.158;8.634;2023-07-31T13:52:41;25.60;99.90
21481;DHT22;10902;48.158;8.634;2023-07-31T13:55:27;25.60;99.90
21481;DHT22;10902;48.158;8.634;2023-07-31T13:58:12;26.20;99.90
21481;DHT22;10902;48.158;8.634;2023-07-31T14:00:58;26.40;99.90
21481;DHT22;10902;48.158;8.634;2023-07-31T14:03:43;26.40;99.90
21481;DHT22;10902;48.158;8.634;2023-07-31T14:06:29;26.90;99.90
21481;DHT22;10902;48.158;8.634;2023-07-31T14:09:14;25.60;99.90
21481;DHT22;10902;48.158;8.634;2023-07-31T14:12:00;25.10;99.90
21481;DHT22;10902;48.158;8.634;2023-07-31T14:14:46;24.10;99.90
21481;DHT22;10902;48.158;8.634;2023-07-31T14:17:31;23.90;99.90
21481;DHT22;10902;48.158;8.634;2023-07-31T14:20:17;23.80;99.90
21481;DHT22;10902;48.158;8.634;2023-07-31T14:23:03;24.20;99.90
21481;DHT22;10902;48.158;8.634;2023-07-31T14:25:48;24.60;99.90
21481;DHT22;10902;48.158;8.634;2023-07-31T14:28:34;24.90;99.90
21481;DHT22;10902;48.158;8.634;2023-07-31T14:31:19;24.20;99.90
21481;DHT22;10902;48.158;8.634;2023-07-31T14:34:05;23.90;99.90
21481;DHT22;10902;48.158;8.634;2023-07-31T14:36:51;24.10;99.90
21481;DHT22;10902;48.158;8.634;2023-07-31T14:39:36;23.50;99.90
21481;DHT22;10902;48.158;8.634;2023-07-31T14:42:22;23.10;99.90
21481;DHT22;10902;48.158;8.634;2023-07-31T14:45:08;23.00;99.90
21481;DHT22;10902;48.158;8.634;2023-07-31T14:47:55;22.50;99.90
21481;DHT22;10902;48.158;8.634;2023-07-31T14:50:41;22.80;99.90
21481;DHT22;10902;48.158;8.634;2023-07-31T14:53:26;23.10;99.90
21481;DHT22;10902;48.158;8.634;2023-07-31T14:56:12;23.20;99.90
21481;DHT22;10902;48.158;8.634;2023-07-31T14:58:57;23.30;99.90
21481;DHT22;10902;48.158;8.634;2023-07-31T15:01:43;23.30;99.90
21481;DHT22;10902;48.158;8.634;2023-07-31T15:04:29;23.00;99.90
21481;DHT22;10902;48.158;8.634;2023-07-31T15:07:14;23.00;99.90
21481;DHT22;10902;48.158;8.634;2023-07-31T15:10:04;22.80;99.90
21481;DHT22;10902;48.158;8.634;2023-07-31T15:12:49;22.60;99.90
21481;DHT22;10902;48.158;8.634;2023-07-31T15:15:35;22.70;99.90
21481;DHT22;10902;48.158;8.634;2023-07-31T15:18:21;22.80;99.90
21481;DHT22;10902;48.158;8.634;2023-07-31T15:21:06;22.70;99.90
21481;DHT22;10902;48.158;8.634;2023-07-31T15:23:55;22.40;99.90
21481;DHT22;10902;48.158;8.634;2023-07-31T15:26:41;22.40;99.90
21481;DHT22;10902;48.158;8.634;2023-07-31T15:29:27;22.30;99.90
21481;DHT22;10902;48.158;8.634;2023-07-31T15:32:13;22.30;99.90
21481;DHT22;10902;48.158;8.634;2023-07-31T15:34:59;22.60;99.90
21481;DHT22;10902;48.158;8.634;2023-07-31T15:37:44;22.80;99.90
21481;DHT22;10902;48.158;8.634;2023-07-31T15:40:30;22.70;99.90
21481;DHT22;10902;48.158;8.634;2023-07-31T15:43:17;22.60;99.90
21481;DHT22;10902;48.158;8.634;2023-07-31T15:46:03;22.70;99.90
21481;DHT22;10902;48.158;8.634;2023-07-31T15:48:49;23.00;99.90
21481;DHT22;10902;48.158;8.634;2023-07-31T15:51:35;23.10;99.90
21481;DHT22;10902;48.158;8.634;2023-07-31T15:54:20;23.10;99.90
21481;DHT22;10902;48.158;8.634;2023-07-31T15:57:06;23.00;99.90
21481;DHT22;10902;48.158;8.634;2023-07-31T15:59:52;22.80;99.90
21481;DHT22;10902;48.158;8.634;2023-07-31T16:02:38;22.50;99.90
21481;DHT22;10902;48.158;8.634;2023-07-31T16:05:24;22.30;99.90
21481;DHT22;10902;48.158;8.634;2023-07-31T16:08:09;22.20;99.90
21481;DHT22;10902;48.158;8.634;2023-07-31T16:10:55;22.20;99.90
21481;DHT22;10902;48.158;8.634;2023-07-31T16:13:41;22.30;99.90
21481;DHT22;10902;48.158;8.634;2023-07-31T16:16:26;22.20;99.90
21481;DHT22;10902;48.158;8.634;2023-07-31T16:19:12;22.10;99.90
21481;DHT22;10902;48.158;8.634;2023-07-31T16:21:58;22.20;99.90
21481;DHT22;10902;48.158;8.634;2023-07-31T16:24:44;22.40;99.90
21481;DHT22;10902;48.158;8.634;2023-07-31T16:27:29;22.80;99.90
21481;DHT22;10902;48.158;8.634;2023-07-31T16:30:15;23.00;99.90
21481;DHT22;10902;48.158;8.634;2023-07-31T16:33:00;22.70;99.90
21481;DHT22;10902;48.158;8.634;2023-07-31T16:35:46;22.60;99.90
21481;DHT22;10902;48.158;8.634;2023-07-31T16:38:31;22.60;99.90
21481;DHT22;10902;48.158;8.634;2023-07-31T16:41:18;22.70;99.90
21481;DHT22;10902;48.158;8.634;2023-07-31T16:44:04;22.50;99.90
21481;DHT22;10902;48.158;8.634;2023-07-31T16:46:49;22.20;99.90
21481;DHT22;10902;48.158;8.634;2023-07-31T16:49:35;22.00;99.90
21481;DHT22;10902;48.158;8.634;2023-07-31T16:52:20;21.80;99.90
21481;DHT22;10902;48.158;8.634;2023-07-31T16:55:06;21.80;99.90
21481;DHT22;10902;48.158;8.634;2023-07-31T16:57:52;21.80;99.90
21481;DHT22;10902;48.158;8.634;2023-07-31T17:00:40;21.70;99.90
21481;DHT22;10902;48.158;8.634;2023-07-31T17:03:26;21.60;99.90
21481;DHT22;10902;48.158;8.634;2023-07-31T17:06:12;21.60;99.90
21481;DHT22;10902;48.158;8.634;2023-07-31T17:08:58;21.50;99.90
21481;DHT22;10902;48.158;8.634;2023-07-31T17:11:43;21.20;99.90
21481;DHT22;10902;48.158;8.634;2023-07-31T17:14:29;21.10;99.90
21481;DHT22;10902;48.158;8.634;2023-07-31T17:17:14;21.20;99.90
21481;DHT22;10902;48.158;8.634;2023-07-31T17:20:00;21.10;99.90
21481;DHT22;10902;48.158;8.634;2023-07-31T17:22:46;21.10;99.90
21481;DHT22;10902;48.158;8.634;2023-07-31T17:25:32;21.20;99.90
21481;DHT22;10902;48.158;8.634;2023-07-31T17:28:18;21.20;99.90
21481;DHT22;10902;48.158;8.634;2023-07-31T17:31:04;21.20;99.90
21481;DHT22;10902;48.158;8.634;2023-07-31T17:33:49;21.20;99.90
21481;DHT22;10902;48.158;8.634;2023-07-31T17:36:35;21.20;99.90
21481;DHT22;10902;48.158;8.634;2023-07-31T17:39:20;21.20;99.90